sensor_id;sensor_type;location;lat;lon;timestamp;P1;durP1;ratioP1;P2;durP2;ratioP2
67798;SDS011;54596;43.216;27.904;2023-03-03T00:00:57;15.23;;;10.43;;
67798;SDS011;54596;43.216;27.904;2023-03-03T00:03:23;18.58;;;11.25;;
67798;SDS011;54596;43.216;27.904;2023-03-03T00:05:51;17.10;;;10.75;;
67798;SDS011;54596;43.216;27.904;2023-03-03T00:08:17;15.77;;;10.43;;
67798;SDS011;54596;43.216;27.904;2023-03-03T00:10:44;17.48;;;10.95;;
67798;SDS011;54596;43.216;27.904;2023-03-03T00:13:20;16.00;;;10.38;;
67798;SDS011;54596;43.216;27.904;2023-03-03T00:15:47;15.40;;;10.32;;
67798;SDS011;54596;43.216;27.904;2023-03-03T00:20:56;17.27;;;10.25;;
67798;SDS011;54596;43.216;27.904;2023-03-03T00:23:34;16.90;;;10.50;;
67798;SDS011;54596;43.216;27.904;2023-03-03T00:26:06;19.05;;;11.52;;
67798;SDS011;54596;43.216;27.904;2023-03-03T00:28:53;17.15;;;10.27;;
67798;SDS011;54596;43.216;27.904;2023-03-03T00:31:42;18.23;;;10.88;;
67798;SDS011;54596;43.216;27.904;2023-03-03T00:34:25;16.58;;;10.45;;
67798;SDS011;54596;43.216;27.904;2023-03-03T00:36:53;18.42;;;10.65;;
67798;SDS011;54596;43.216;27.904;2023-03-03T00:39:36;17.88;;;9.95;;
67798;SDS011;54596;43.216;27.904;2023-03-03T00:42:15;16.10;;;10.13;;
67798;SDS011;54596;43.216;27.904;2023-03-03T00:47:24;17.48;;;10.35;;
67798;SDS011;54596;43.216;27.904;2023-03-03T00:49:55;15.82;;;9.30;;
67798;SDS011;54596;43.216;27.904;2023-03-03T00:52:46;14.80;;;9.40;;
67798;SDS011;54596;43.216;27.904;2023-03-03T00:55:19;17.25;;;9.73;;
67798;SDS011;54596;43.216;27.904;2023-03-03T00:57:45;19.63;;;11.15;;
67798;SDS011;54596;43.216;27.904;2023-03-03T01:00:11;14.57;;;9.27;;
67798;SDS011;54596;43.216;27.904;2023-03-03T01:02:37;14.82;;;9.50;;
67798;SDS011;54596;43.216;27.904;2023-03-03T01:05:02;16.70;;;9.27;;
67798;SDS011;54596;43.216;27.904;2023-03-03T01:07:28;15.02;;;9.05;;
67798;SDS011;54596;43.216;27.904;2023-03-03T01:09:53;13.88;;;9.07;;
67798;SDS011;54596;43.216;27.904;2023-03-03T01:12:19;14.98;;;9.32;;
67798;SDS011;54596;43.216;27.904;2023-03-03T01:14:44;15.02;;;9.90;;
67798;SDS011;54596;43.216;27.904;2023-03-03T01:17:10;15.77;;;10.10;;
67798;SDS011;54596;43.216;27.904;2023-03-03T01:19:35;16.23;;;10.52;;
67798;SDS011;54596;43.216;27.904;2023-03-03T01:22:01;16.05;;;9.93;;
67798;SDS011;54596;43.216;27.904;2023-03-03T01:24:27;16.00;;;9.77;;
67798;SDS011;54596;43.216;27.904;2023-03-03T01:26:52;14.73;;;8.68;;
67798;SDS011;54596;43.216;27.904;2023-03-03T01:29:17;17.80;;;9.75;;
67798;SDS011;54596;43.216;27.904;2023-03-03T01:31:43;14.45;;;9.23;;
67798;SDS011;54596;43.216;27.904;2023-03-03T01:34:08;15.43;;;9.07;;
67798;SDS011;54596;43.216;27.904;2023-03-03T01:36:34;15.18;;;9.43;;
67798;SDS011;54596;43.216;27.904;2023-03-03T01:39:01;17.63;;;9.02;;
67798;SDS011;54596;43.216;27.904;2023-03-03T01:41:27;17.67;;;10.02;;
67798;SDS011;54596;43.216;27.904;2023-03-03T01:43:54;15.52;;;9.98;;
67798;SDS011;54596;43.216;27.904;2023-03-03T01:48:49;17.40;;;11.43;;
67798;SDS011;54596;43.216;27.904;2023-03-03T01:51:34;16.92;;;10.57;;
67798;SDS011;54596;43.216;27.904;2023-03-03T01:54:08;18.83;;;11.88;;
67798;SDS011;54596;43.216;27.904;2023-03-03T01:56:38;19.33;;;11.30;;
67798;SDS011;54596;43.216;27.904;2023-03-03T01:59:10;19.83;;;10.98;;
67798;SDS011;54596;43.216;27.904;2023-03-03T02:01:46;20.30;;;10.55;;
67798;SDS011;54596;43.216;27.904;2023-03-03T02:04:12;18.17;;;10.30;;
67798;SDS011;54596;43.216;27.904;2023-03-03T02:06:43;14.45;;;10.25;;
67798;SDS011;54596;43.216;27.904;2023-03-03T02:09:31;19.23;;;10.68;;
67798;SDS011;54596;43.216;27.904;2023-03-03T02:12:04;19.17;;;11.02;;
67798;SDS011;54596;43.216;27.904;2023-03-03T02:14:33;15.95;;;10.43;;
67798;SDS011;54596;43.216;27.904;2023-03-03T02:16:59;17.83;;;10.68;;
67798;SDS011;54596;43.216;27.904;2023-03-03T02:22:04;17.85;;;12.02;;
67798;SDS011;54596;43.216;27.904;2023-03-03T02:24:50;17.52;;;10.57;;
67798;SDS011;54596;43.216;27.904;2023-03-03T02:27:20;17.10;;;11.10;;
67798;SDS011;54596;43.216;27.904;2023-03-03T02:29:45;15.70;;;10.50;;
67798;SDS011;54596;43.216;27.904;2023-03-03T02:32:11;17.33;;;11.18;;
67798;SDS011;54596;43.216;27.904;2023-03-03T02:34:47;16.50;;;10.73;;
67798;SDS011;54596;43.216;27.904;2023-03-03T02:37:14;17.00;;;10.23;;
67798;SDS011;54596;43.216;27.904;2023-03-03T02:39:40;18.52;;;10.35;;
67798;SDS011;54596;43.216;27.904;2023-03-03T02:42:07;17.30;;;10.40;;
67798;SDS011;54596;43.216;27.904;2023-03-03T02:44:39;18.63;;;10.68;;
67798;SDS011;54596;43.216;27.904;2023-03-03T02:47:05;17.85;;;10.18;;
67798;SDS011;54596;43.216;27.904;2023-03-03T02:49:32;15.82;;;10.45;;
67798;SDS011;54596;43.216;27.904;2023-03-03T02:51:59;17.65;;;10.65;;
67798;SDS011;54596;43.216;27.904;2023-03-03T02:54:27;17.75;;;10.77;;
67798;SDS011;54596;43.216;27.904;2023-03-03T02:56:57;16.73;;;10.50;;
67798;SDS011;54596;43.216;27.904;2023-03-03T02:59:23;18.27;;;10.77;;
67798;SDS011;54596;43.216;27.904;2023-03-03T03:01:48;15.52;;;10.55;;
67798;SDS011;54596;43.216;27.904;2023-03-03T03:04:15;18.35;;;11.10;;
67798;SDS011;54596;43.216;27.904;2023-03-03T03:06:42;18.90;;;11.55;;
67798;SDS011;54596;43.216;27.904;2023-03-03T03:09:08;18.77;;;10.90;;
67798;SDS011;54596;43.216;27.904;2023-03-03T03:11:35;15.68;;;10.00;;
67798;SDS011;54596;43.216;27.904;2023-03-03T03:14:04;18.50;;;9.90;;
67798;SDS011;54596;43.216;27.904;2023-03-03T03:16:30;17.65;;;11.10;;
67798;SDS011;54596;43.216;27.904;2023-03-03T03:18:56;18.58;;;11.00;;
67798;SDS011;54596;43.216;27.904;2023-03-03T03:21:23;18.60;;;10.85;;
67798;SDS011;54596;43.216;27.904;2023-03-03T03:23:48;18.23;;;11.27;;
67798;SDS011;54596;43.216;27.904;2023-03-03T03:26:14;16.80;;;11.10;;
67798;SDS011;54596;43.216;27.904;2023-03-03T03:28:39;16.75;;;10.63;;
67798;SDS011;54596;43.216;27.904;2023-03-03T03:31:05;18.67;;;11.00;;
67798;SDS011;54596;43.216;27.904;2023-03-03T03:33:32;18.13;;;11.57;;
67798;SDS011;54596;43.216;27.904;2023-03-03T03:35:58;17.67;;;11.23;;
67798;SDS011;54596;43.216;27.904;2023-03-03T03:38:24;17.67;;;10.90;;
67798;SDS011;54596;43.216;27.904;2023-03-03T03:40:51;17.58;;;10.48;;
67798;SDS011;54596;43.216;27.904;2023-03-03T03:43:17;16.58;;;10.20;;
67798;SDS011;54596;43.216;27.904;2023-03-03T03:45:42;16.92;;;10.20;;
67798;SDS011;54596;43.216;27.904;2023-03-03T03:48:08;16.77;;;10.95;;
67798;SDS011;54596;43.216;27.904;2023-03-03T03:50:34;17.38;;;10.75;;
67798;SDS011;54596;43.216;27.904;2023-03-03T03:53:00;18.25;;;11.02;;
67798;SDS011;54596;43.216;27.904;2023-03-03T03:55:25;19.08;;;11.20;;
67798;SDS011;54596;43.216;27.904;2023-03-03T03:57:51;16.52;;;10.77;;
67798;SDS011;54596;43.216;27.904;2023-03-03T04:00:16;19.20;;;10.73;;
67798;SDS011;54596;43.216;27.904;2023-03-03T04:02:42;19.73;;;11.48;;
67798;SDS011;54596;43.216;27.904;2023-03-03T04:05:07;19.23;;;10.90;;
67798;SDS011;54596;43.216;27.904;2023-03-03T04:07:33;24.52;;;11.57;;
67798;SDS011;54596;43.216;27.904;2023-03-03T04:09:58;17.75;;;10.18;;
67798;SDS011;54596;43.216;27.904;2023-03-03T04:12:24;18.95;;;10.60;;
67798;SDS011;54596;43.216;27.904;2023-03-03T04:14:49;19.55;;;10.52;;
67798;SDS011;54596;43.216;27.904;2023-03-03T04:17:18;20.00;;;10.93;;
67798;SDS011;54596;43.216;27.904;2023-03-03T04:19:46;17.42;;;10.90;;
67798;SDS011;54596;43.216;27.904;2023-03-03T04:22:11;16.70;;;10.70;;
67798;SDS011;54596;43.216;27.904;2023-03-03T04:24:40;19.13;;;10.93;;
67798;SDS011;54596;43.216;27.904;2023-03-03T04:27:06;19.27;;;12.07;;
67798;SDS011;54596;43.216;27.904;2023-03-03T04:29:33;18.27;;;12.10;;
67798;SDS011;54596;43.216;27.904;2023-03-03T04:31:59;26.63;;;12.07;;
67798;SDS011;54596;43.216;27.904;2023-03-03T04:34:25;18.30;;;11.20;;
67798;SDS011;54596;43.216;27.904;2023-03-03T04:36:50;17.35;;;10.98;;
67798;SDS011;54596;43.216;27.904;2023-03-03T04:39:15;18.38;;;11.45;;
67798;SDS011;54596;43.216;27.904;2023-03-03T04:41:41;19.05;;;11.07;;
67798;SDS011;54596;43.216;27.904;2023-03-03T04:44:07;15.50;;;10.82;;
67798;SDS011;54596;43.216;27.904;2023-03-03T04:46:32;19.30;;;11.45;;
67798;SDS011;54596;43.216;27.904;2023-03-03T04:48:57;18.70;;;12.13;;
67798;SDS011;54596;43.216;27.904;2023-03-03T04:51:23;20.33;;;12.32;;
67798;SDS011;54596;43.216;27.904;2023-03-03T04:53:49;21.02;;;12.48;;
67798;SDS011;54596;43.216;27.904;2023-03-03T04:56:14;21.48;;;13.30;;
67798;SDS011;54596;43.216;27.904;2023-03-03T04:58:40;17.20;;;11.80;;
67798;SDS011;54596;43.216;27.904;2023-03-03T05:01:05;21.08;;;12.20;;
67798;SDS011;54596;43.216;27.904;2023-03-03T05:03:31;22.17;;;12.77;;
67798;SDS011;54596;43.216;27.904;2023-03-03T05:05:57;22.77;;;11.82;;
67798;SDS011;54596;43.216;27.904;2023-03-03T05:08:22;20.17;;;12.25;;
67798;SDS011;54596;43.216;27.904;2023-03-03T05:10:51;18.05;;;11.82;;
67798;SDS011;54596;43.216;27.904;2023-03-03T05:13:18;21.05;;;11.75;;
67798;SDS011;54596;43.216;27.904;2023-03-03T05:15:47;19.70;;;11.23;;
67798;SDS011;54596;43.216;27.904;2023-03-03T05:18:18;19.08;;;11.85;;
67798;SDS011;54596;43.216;27.904;2023-03-03T05:20:44;22.30;;;13.05;;
67798;SDS011;54596;43.216;27.904;2023-03-03T05:23:09;21.42;;;13.20;;
67798;SDS011;54596;43.216;27.904;2023-03-03T05:25:35;19.40;;;12.48;;
67798;SDS011;54596;43.216;27.904;2023-03-03T05:28:00;17.65;;;11.35;;
67798;SDS011;54596;43.216;27.904;2023-03-03T05:30:26;18.35;;;11.50;;
67798;SDS011;54596;43.216;27.904;2023-03-03T05:32:51;19.08;;;12.25;;
67798;SDS011;54596;43.216;27.904;2023-03-03T05:35:17;17.55;;;11.07;;
67798;SDS011;54596;43.216;27.904;2023-03-03T05:37:43;17.30;;;10.93;;
67798;SDS011;54596;43.216;27.904;2023-03-03T05:40:12;28.63;;;15.95;;
67798;SDS011;54596;43.216;27.904;2023-03-03T05:42:38;33.85;;;23.42;;
67798;SDS011;54596;43.216;27.904;2023-03-03T05:45:04;35.05;;;23.95;;
67798;SDS011;54596;43.216;27.904;2023-03-03T05:47:29;40.53;;;25.38;;
67798;SDS011;54596;43.216;27.904;2023-03-03T05:49:55;36.13;;;23.30;;
67798;SDS011;54596;43.216;27.904;2023-03-03T05:52:20;36.47;;;23.52;;
67798;SDS011;54596;43.216;27.904;2023-03-03T05:54:48;35.20;;;23.75;;
67798;SDS011;54596;43.216;27.904;2023-03-03T05:57:13;37.22;;;23.95;;
67798;SDS011;54596;43.216;27.904;2023-03-03T05:59:39;37.55;;;23.60;;
67798;SDS011;54596;43.216;27.904;2023-03-03T06:02:04;40.15;;;25.30;;
67798;SDS011;54596;43.216;27.904;2023-03-03T06:04:30;38.85;;;26.77;;
67798;SDS011;54596;43.216;27.904;2023-03-03T06:06:55;50.10;;;29.77;;
67798;SDS011;54596;43.216;27.904;2023-03-03T06:09:21;47.03;;;29.33;;
67798;SDS011;54596;43.216;27.904;2023-03-03T06:11:46;43.72;;;29.20;;
67798;SDS011;54596;43.216;27.904;2023-03-03T06:14:12;41.17;;;28.13;;
67798;SDS011;54596;43.216;27.904;2023-03-03T06:16:38;39.38;;;27.13;;
67798;SDS011;54596;43.216;27.904;2023-03-03T06:19:03;35.35;;;24.63;;
67798;SDS011;54596;43.216;27.904;2023-03-03T06:21:29;42.58;;;28.48;;
67798;SDS011;54596;43.216;27.904;2023-03-03T06:23:54;40.33;;;26.67;;
67798;SDS011;54596;43.216;27.904;2023-03-03T06:26:20;35.78;;;24.08;;
67798;SDS011;54596;43.216;27.904;2023-03-03T06:28:45;37.80;;;24.52;;
67798;SDS011;54596;43.216;27.904;2023-03-03T06:31:12;42.25;;;26.10;;
67798;SDS011;54596;43.216;27.904;2023-03-03T06:33:37;39.13;;;24.33;;
67798;SDS011;54596;43.216;27.904;2023-03-03T06:36:03;30.65;;;21.25;;
67798;SDS011;54596;43.216;27.904;2023-03-03T06:38:28;34.08;;;22.80;;
67798;SDS011;54596;43.216;27.904;2023-03-03T06:40:54;33.78;;;22.92;;
67798;SDS011;54596;43.216;27.904;2023-03-03T06:43:19;35.28;;;24.35;;
67798;SDS011;54596;43.216;27.904;2023-03-03T06:45:45;37.13;;;23.17;;
67798;SDS011;54596;43.216;27.904;2023-03-03T06:48:10;33.38;;;21.63;;
67798;SDS011;54596;43.216;27.904;2023-03-03T06:50:36;34.97;;;23.33;;
67798;SDS011;54596;43.216;27.904;2023-03-03T06:53:09;40.47;;;24.38;;
67798;SDS011;54596;43.216;27.904;2023-03-03T06:55:36;42.00;;;23.73;;
67798;SDS011;54596;43.216;27.904;2023-03-03T06:58:18;33.65;;;23.02;;
67798;SDS011;54596;43.216;27.904;2023-03-03T07:03:17;40.72;;;26.52;;
67798;SDS011;54596;43.216;27.904;2023-03-03T07:05:45;41.75;;;28.40;;
67798;SDS011;54596;43.216;27.904;2023-03-03T07:08:12;41.75;;;30.35;;
67798;SDS011;54596;43.216;27.904;2023-03-03T07:10:40;43.65;;;29.88;;
67798;SDS011;54596;43.216;27.904;2023-03-03T07:13:17;41.50;;;26.17;;
67798;SDS011;54596;43.216;27.904;2023-03-03T07:15:54;40.33;;;28.45;;
67798;SDS011;54596;43.216;27.904;2023-03-03T07:18:39;54.45;;;30.55;;
67798;SDS011;54596;43.216;27.904;2023-03-03T07:23:44;24.30;;;16.05;;
67798;SDS011;54596;43.216;27.904;2023-03-03T07:26:13;23.50;;;14.50;;
67798;SDS011;54596;43.216;27.904;2023-03-03T07:28:41;25.27;;;13.50;;
67798;SDS011;54596;43.216;27.904;2023-03-03T07:31:28;19.63;;;11.80;;
67798;SDS011;54596;43.216;27.904;2023-03-03T07:34:04;27.38;;;17.40;;
67798;SDS011;54596;43.216;27.904;2023-03-03T07:36:43;26.73;;;17.20;;
67798;SDS011;54596;43.216;27.904;2023-03-03T07:39:20;20.20;;;12.23;;
67798;SDS011;54596;43.216;27.904;2023-03-03T07:42:08;22.05;;;12.82;;
67798;SDS011;54596;43.216;27.904;2023-03-03T07:44:57;21.90;;;13.57;;
67798;SDS011;54596;43.216;27.904;2023-03-03T07:47:25;25.63;;;17.38;;
67798;SDS011;54596;43.216;27.904;2023-03-03T07:49:55;41.47;;;27.83;;
67798;SDS011;54596;43.216;27.904;2023-03-03T07:52:28;37.15;;;24.73;;
67798;SDS011;54596;43.216;27.904;2023-03-03T07:55:01;45.72;;;23.77;;
67798;SDS011;54596;43.216;27.904;2023-03-03T07:57:47;27.45;;;15.10;;
67798;SDS011;54596;43.216;27.904;2023-03-03T08:02:59;20.52;;;13.52;;
67798;SDS011;54596;43.216;27.904;2023-03-03T08:08:01;20.30;;;13.55;;
67798;SDS011;54596;43.216;27.904;2023-03-03T08:13:33;26.35;;;14.27;;
67798;SDS011;54596;43.216;27.904;2023-03-03T08:18:35;26.83;;;16.00;;
67798;SDS011;54596;43.216;27.904;2023-03-03T08:23:44;37.15;;;21.73;;
67798;SDS011;54596;43.216;27.904;2023-03-03T08:26:13;37.78;;;21.08;;
67798;SDS011;54596;43.216;27.904;2023-03-03T08:28:39;33.78;;;19.58;;
67798;SDS011;54596;43.216;27.904;2023-03-03T08:31:04;31.55;;;18.30;;
67798;SDS011;54596;43.216;27.904;2023-03-03T08:33:30;29.60;;;17.27;;
67798;SDS011;54596;43.216;27.904;2023-03-03T08:35:56;26.73;;;16.02;;
67798;SDS011;54596;43.216;27.904;2023-03-03T08:38:23;25.15;;;15.65;;
67798;SDS011;54596;43.216;27.904;2023-03-03T08:40:49;29.55;;;15.80;;
67798;SDS011;54596;43.216;27.904;2023-03-03T08:43:15;25.67;;;14.98;;
67798;SDS011;54596;43.216;27.904;2023-03-03T08:45:46;33.83;;;15.45;;
67798;SDS011;54596;43.216;27.904;2023-03-03T08:48:15;57.58;;;16.17;;
67798;SDS011;54596;43.216;27.904;2023-03-03T08:50:42;29.73;;;13.80;;
67798;SDS011;54596;43.216;27.904;2023-03-03T08:53:08;27.80;;;14.77;;
67798;SDS011;54596;43.216;27.904;2023-03-03T08:55:35;28.92;;;16.08;;
67798;SDS011;54596;43.216;27.904;2023-03-03T08:58:00;25.48;;;14.85;;
67798;SDS011;54596;43.216;27.904;2023-03-03T09:00:26;53.70;;;15.95;;
67798;SDS011;54596;43.216;27.904;2023-03-03T09:02:52;34.20;;;14.68;;
67798;SDS011;54596;43.216;27.904;2023-03-03T09:05:18;25.50;;;13.10;;
67798;SDS011;54596;43.216;27.904;2023-03-03T09:07:45;23.73;;;14.15;;
67798;SDS011;54596;43.216;27.904;2023-03-03T09:10:11;21.05;;;13.05;;
67798;SDS011;54596;43.216;27.904;2023-03-03T09:12:41;29.50;;;14.35;;
67798;SDS011;54596;43.216;27.904;2023-03-03T09:17:42;17.77;;;11.30;;
67798;SDS011;54596;43.216;27.904;2023-03-03T09:29:00;17.77;;;10.80;;
67798;SDS011;54596;43.216;27.904;2023-03-03T09:31:44;16.60;;;11.30;;
67798;SDS011;54596;43.216;27.904;2023-03-03T09:36:49;18.88;;;10.95;;
67798;SDS011;54596;43.216;27.904;2023-03-03T09:47:10;13.27;;;8.98;;
67798;SDS011;54596;43.216;27.904;2023-03-03T10:13:09;15.90;;;9.52;;
67798;SDS011;54596;43.216;27.904;2023-03-03T10:16:18;13.55;;;8.30;;
67798;SDS011;54596;43.216;27.904;2023-03-03T10:21:56;15.27;;;8.25;;
67798;SDS011;54596;43.216;27.904;2023-03-03T10:24:31;16.17;;;9.57;;
67798;SDS011;54596;43.216;27.904;2023-03-03T10:38:23;12.97;;;8.00;;
67798;SDS011;54596;43.216;27.904;2023-03-03T10:46:37;15.75;;;8.50;;
67798;SDS011;54596;43.216;27.904;2023-03-03T11:00:39;13.90;;;7.95;;
67798;SDS011;54596;43.216;27.904;2023-03-03T11:09:27;22.15;;;14.85;;
67798;SDS011;54596;43.216;27.904;2023-03-03T11:14:44;16.85;;;10.20;;
67798;SDS011;54596;43.216;27.904;2023-03-03T11:17:35;16.55;;;9.05;;
67798;SDS011;54596;43.216;27.904;2023-03-03T11:22:47;17.38;;;9.65;;
67798;SDS011;54596;43.216;27.904;2023-03-03T11:34:12;14.85;;;9.18;;
67798;SDS011;54596;43.216;27.904;2023-03-03T11:37:16;15.18;;;9.45;;
67798;SDS011;54596;43.216;27.904;2023-03-03T11:39:48;14.60;;;8.90;;
67798;SDS011;54596;43.216;27.904;2023-03-03T11:42:23;15.65;;;8.32;;
67798;SDS011;54596;43.216;27.904;2023-03-03T11:48:15;15.63;;;9.13;;
67798;SDS011;54596;43.216;27.904;2023-03-03T11:50:57;16.70;;;9.30;;
67798;SDS011;54596;43.216;27.904;2023-03-03T11:58:44;13.23;;;8.33;;
67798;SDS011;54596;43.216;27.904;2023-03-03T12:01:19;13.88;;;7.63;;
67798;SDS011;54596;43.216;27.904;2023-03-03T12:04:03;15.02;;;7.95;;
67798;SDS011;54596;43.216;27.904;2023-03-03T12:12:51;13.95;;;8.05;;
67798;SDS011;54596;43.216;27.904;2023-03-03T12:20:37;14.50;;;8.63;;
67798;SDS011;54596;43.216;27.904;2023-03-03T12:23:19;14.30;;;7.85;;
67798;SDS011;54596;43.216;27.904;2023-03-03T12:25:57;14.98;;;8.00;;
67798;SDS011;54596;43.216;27.904;2023-03-03T12:28:34;12.23;;;7.80;;
67798;SDS011;54596;43.216;27.904;2023-03-03T12:34:33;13.02;;;8.45;;
67798;SDS011;54596;43.216;27.904;2023-03-03T12:37:25;16.13;;;8.85;;
67798;SDS011;54596;43.216;27.904;2023-03-03T12:40:06;17.67;;;9.63;;
67798;SDS011;54596;43.216;27.904;2023-03-03T12:43:02;14.00;;;9.02;;
67798;SDS011;54596;43.216;27.904;2023-03-03T12:45:55;15.02;;;9.50;;
67798;SDS011;54596;43.216;27.904;2023-03-03T12:59:35;12.45;;;8.15;;
67798;SDS011;54596;43.216;27.904;2023-03-03T13:02:28;16.35;;;8.82;;
67798;SDS011;54596;43.216;27.904;2023-03-03T13:07:40;14.75;;;9.80;;
67798;SDS011;54596;43.216;27.904;2023-03-03T13:13:10;17.15;;;9.73;;
